Time;durP1;ratioP1;P1;durP2;ratioP2;P2;SDS_P1;SDS_P2;PMS_P1;PMS_P2;Temp;Humidity;BMP_temperature;BMP_pressure;BME280_temperature;BME280_humidity;BME280_pressure;Samples;Min_cycle;Max_cycle;Signal;HPM_P1;HPM_P2
2022/12/29 00:01:19;;;;;;;;;;;5.70;99.90;;;;;;4998841;28;20011;-72
2022/12/29 00:03:49;;;;;;;;;;;5.80;99.90;;;;;;4994479;28;19929;-73
2022/12/29 00:06:19;;;;;;;;;;;5.80;99.90;;;;;;5007481;28;20028;-72
2022/12/29 00:08:48;;;;;;;;;;;5.80;99.90;;;;;;5022512;28;19925;-73
2022/12/29 00:11:19;;;;;;;;;;;5.80;99.90;;;;;;5010350;28;19926;-73
2022/12/29 00:16:35;;;;;;;;;;;6.00;99.90;;;;;;5029138;28;20016;-72
2022/12/29 00:19:03;;;;;;;;;;;6.00;99.90;;;;;;5014206;28;19925;-72
2022/12/29 00:35:52;;;;;;;;;;;6.30;99.90;;;;;;5020897;28;19929;-73
2022/12/29 00:44:06;;;;;;;;;;;6.70;99.90;;;;;;5009154;28;20020;-72
2022/12/29 00:46:37;;;;;;;;;;;6.80;99.90;;;;;;5022854;28;20380;-73
2022/12/29 00:52:02;;;;;;;;;;;6.90;99.90;;;;;;5022889;28;19932;-73
2022/12/29 00:54:32;;;;;;;;;;;6.90;99.90;;;;;;5022811;28;19964;-73
2022/12/29 00:57:03;;;;;;;;;;;7.00;99.90;;;;;;5026417;28;20012;-73
2022/12/29 00:59:37;;;;;;;;;;;7.20;99.90;;;;;;5011221;28;20255;-72
2022/12/29 01:02:07;;;;;;;;;;;7.20;99.90;;;;;;4992037;28;20004;-73
2022/12/29 01:04:35;;;;;;;;;;;7.10;99.90;;;;;;4995273;28;19929;-73
2022/12/29 01:07:05;;;;;;;;;;;7.10;99.90;;;;;;4996570;28;19965;-72
2022/12/29 01:12:40;;;;;;;;;;;7.40;99.90;;;;;;5024322;28;19957;-73
2022/12/29 01:15:10;;;;;;;;;;;7.50;99.90;;;;;;4987346;28;19931;-72
2022/12/29 01:17:40;;;;;;;;;;;7.60;99.90;;;;;;5027160;28;19964;-72
2022/12/29 01:20:09;;;;;;;;;;;7.60;99.90;;;;;;5009157;28;20384;-73
2022/12/29 01:22:39;;;;;;;;;;;7.60;99.90;;;;;;4996831;28;19925;-72
2022/12/29 01:25:08;;;;;;;;;;;7.60;99.90;;;;;;5009689;28;20030;-72
2022/12/29 01:27:38;;;;;;;;;;;7.70;99.90;;;;;;4993746;28;19933;-72
2022/12/29 01:30:08;;;;;;;;;;;7.70;99.90;;;;;;5007187;28;20299;-72
2022/12/29 01:32:37;;;;;;;;;;;7.70;99.90;;;;;;5022204;28;19980;-72
2022/12/29 01:35:08;;;;;;;;;;;7.70;99.90;;;;;;5019056;28;20304;-72
2022/12/29 01:37:38;;;;;;;;;;;7.70;99.90;;;;;;5005764;28;19932;-72
2022/12/29 01:40:06;;;;;;;;;;;7.80;99.90;;;;;;4994564;28;19925;-72
2022/12/29 01:42:37;;;;;;;;;;;7.80;99.90;;;;;;5027977;28;19925;-72
2022/12/29 01:45:14;;;;;;;;;;;7.90;99.90;;;;;;4994529;28;19936;-72
2022/12/29 01:47:44;;;;;;;;;;;7.90;99.90;;;;;;4996797;28;19979;-72
2022/12/29 01:50:33;;;;;;;;;;;8.00;99.90;;;;;;5026526;28;19925;-72
2022/12/29 01:53:13;;;;;;;;;;;8.10;99.90;;;;;;5021913;28;20479;-73
2022/12/29 01:55:46;;;;;;;;;;;8.10;99.90;;;;;;5029048;28;19932;-72
2022/12/29 01:58:18;;;;;;;;;;;8.20;99.90;;;;;;5017930;28;20004;-72
2022/12/29 02:00:45;;;;;;;;;;;8.20;99.90;;;;;;5025509;28;20380;-72
2022/12/29 02:03:15;;;;;;;;;;;8.40;99.90;;;;;;4993620;28;19984;-73
2022/12/29 02:05:50;;;;;;;;;;;8.40;99.90;;;;;;5023045;28;19929;-72
2022/12/29 02:08:22;;;;;;;;;;;8.50;99.90;;;;;;5025141;28;19929;-73
2022/12/29 02:10:52;;;;;;;;;;;8.50;99.90;;;;;;5001980;28;20009;-73
2022/12/29 02:13:24;;;;;;;;;;;8.60;99.90;;;;;;5010989;28;20008;-73
2022/12/29 02:16:15;;;;;;;;;;;8.60;99.90;;;;;;4994885;28;19976;-73
2022/12/29 02:19:02;;;;;;;;;;;8.60;99.90;;;;;;5025316;28;19932;-72
2022/12/29 02:21:34;;;;;;;;;;;8.60;99.90;;;;;;5006619;28;19975;-72
2022/12/29 02:24:34;;;;;;;;;;;8.70;99.90;;;;;;5025064;28;19957;-72
2022/12/29 02:27:04;;;;;;;;;;;8.70;99.90;;;;;;4993306;28;19934;-72
2022/12/29 02:29:48;;;;;;;;;;;8.70;99.90;;;;;;5009950;28;20471;-72
2022/12/29 02:32:23;;;;;;;;;;;8.70;99.90;;;;;;5007282;28;19971;-72
2022/12/29 02:35:01;;;;;;;;;;;8.70;99.90;;;;;;4999305;28;19925;-73
2022/12/29 02:37:53;;;;;;;;;;;8.80;99.90;;;;;;5007458;28;19929;-72
2022/12/29 02:40:27;;;;;;;;;;;8.90;99.90;;;;;;4989349;28;19925;-72
2022/12/29 02:43:22;;;;;;;;;;;8.90;99.90;;;;;;4993602;28;20036;-72
2022/12/29 02:45:55;;;;;;;;;;;8.90;99.90;;;;;;4977225;28;19925;-72
2022/12/29 02:48:23;;;;;;;;;;;9.00;99.90;;;;;;5023338;28;19932;-72
2022/12/29 02:50:52;;;;;;;;;;;9.00;99.90;;;;;;5013083;28;19929;-72
2022/12/29 02:54:40;;;;;;;;;;;8.90;99.90;;;;;;5022648;28;19925;-72
2022/12/29 02:56:12;;;;;;;;;;;8.90;99.90;;;;;;5011004;28;19926;-72
2022/12/29 02:58:42;;;;;;;;;;;9.00;99.90;;;;;;5001562;28;19925;-72
2022/12/29 03:01:28;;;;;;;;;;;9.10;99.90;;;;;;4999991;28;20451;-73
2022/12/29 03:04:21;;;;;;;;;;;9.10;99.90;;;;;;5009255;28;19948;-73
2022/12/29 03:07:02;;;;;;;;;;;9.10;99.90;;;;;;5022191;28;19933;-72
2022/12/29 03:09:30;;;;;;;;;;;9.20;99.90;;;;;;5018114;28;19930;-73
2022/12/29 03:12:19;;;;;;;;;;;9.20;99.90;;;;;;5014670;28;20423;-72
2022/12/29 03:17:36;;;;;;;;;;;9.30;99.90;;;;;;5022867;28;19925;-72
2022/12/29 03:20:08;;;;;;;;;;;9.20;99.90;;;;;;5015651;28;20047;-72
2022/12/29 03:22:43;;;;;;;;;;;9.20;99.90;;;;;;5009070;28;20023;-72
2022/12/29 03:25:30;;;;;;;;;;;9.10;99.90;;;;;;5014825;28;20370;-72
2022/12/29 03:28:06;;;;;;;;;;;9.10;99.90;;;;;;4998387;28;20550;-72
2022/12/29 03:30:42;;;;;;;;;;;9.10;99.90;;;;;;5028864;28;19929;-72
2022/12/29 03:33:15;;;;;;;;;;;9.10;99.90;;;;;;5007567;28;19925;-73
2022/12/29 03:35:45;;;;;;;;;;;9.10;99.90;;;;;;5029647;28;20024;-72
2022/12/29 03:38:18;;;;;;;;;;;9.10;99.90;;;;;;5025147;28;19929;-73
2022/12/29 03:40:50;;;;;;;;;;;9.00;99.90;;;;;;5016537;28;20304;-72
2022/12/29 03:43:18;;;;;;;;;;;9.00;99.90;;;;;;5013825;28;20351;-72
2022/12/29 03:45:50;;;;;;;;;;;9.10;99.90;;;;;;5023461;28;19941;-72
2022/12/29 03:48:24;;;;;;;;;;;9.00;99.90;;;;;;5010589;28;19929;-75
2022/12/29 03:50:57;;;;;;;;;;;9.00;99.90;;;;;;4991431;28;20381;-72
2022/12/29 03:53:29;;;;;;;;;;;9.00;99.90;;;;;;5000573;28;19925;-73
2022/12/29 03:56:15;;;;;;;;;;;9.00;99.90;;;;;;5021408;28;19925;-72
2022/12/29 03:58:45;;;;;;;;;;;9.00;99.90;;;;;;5012035;28;19953;-72
2022/12/29 04:01:22;;;;;;;;;;;9.00;99.90;;;;;;4995843;28;19925;-77
2022/12/29 04:03:52;;;;;;;;;;;9.10;99.90;;;;;;5007793;28;19929;-72
2022/12/29 04:06:23;;;;;;;;;;;9.10;99.90;;;;;;5008746;28;20308;-72
2022/12/29 04:08:58;;;;;;;;;;;9.20;99.90;;;;;;5010672;28;19964;-72
2022/12/29 04:11:50;;;;;;;;;;;9.20;99.90;;;;;;5009121;28;19925;-72
2022/12/29 04:14:23;;;;;;;;;;;9.10;99.90;;;;;;5013427;28;19936;-72
2022/12/29 04:16:53;;;;;;;;;;;9.10;99.90;;;;;;5013845;28;19933;-72
2022/12/29 04:19:22;;;;;;;;;;;9.10;99.90;;;;;;5004574;28;19925;-72
2022/12/29 04:21:50;;;;;;;;;;;9.10;99.90;;;;;;4995086;28;20020;-72
2022/12/29 04:24:20;;;;;;;;;;;9.10;99.90;;;;;;5012072;28;19952;-72
2022/12/29 04:26:52;;;;;;;;;;;9.00;99.90;;;;;;4998904;28;19929;-72
2022/12/29 04:32:59;;;;;;;;;;;8.90;99.90;;;;;;5008729;28;19929;-73
2022/12/29 04:35:28;;;;;;;;;;;8.80;99.90;;;;;;5009275;28;19976;-73
2022/12/29 04:38:00;;;;;;;;;;;8.70;99.90;;;;;;4994790;28;20454;-72
2022/12/29 04:40:41;;;;;;;;;;;8.70;99.90;;;;;;5012288;28;20011;-73
2022/12/29 04:43:10;;;;;;;;;;;8.60;99.90;;;;;;4994302;28;19947;-72
2022/12/29 04:45:57;;;;;;;;;;;8.60;99.90;;;;;;4997588;28;20327;-73
2022/12/29 04:48:35;;;;;;;;;;;8.50;99.90;;;;;;5012503;28;20430;-73
2022/12/29 04:51:24;;;;;;;;;;;8.40;99.90;;;;;;5015193;28;19929;-73
2022/12/29 04:53:56;;;;;;;;;;;8.40;99.90;;;;;;5011643;28;19954;-72
2022/12/29 04:56:29;;;;;;;;;;;8.40;99.90;;;;;;5013259;28;19971;-73
2022/12/29 04:58:58;;;;;;;;;;;8.50;99.90;;;;;;5022471;28;19929;-73
2022/12/29 05:01:27;;;;;;;;;;;8.40;99.90;;;;;;5011681;28;20055;-73
2022/12/29 05:03:58;;;;;;;;;;;8.50;99.90;;;;;;5013335;28;20311;-73
2022/12/29 05:06:27;;;;;;;;;;;8.50;99.90;;;;;;5009713;28;19929;-72
2022/12/29 05:08:56;;;;;;;;;;;8.60;99.90;;;;;;5021000;28;20008;-73
2022/12/29 05:11:26;;;;;;;;;;;8.60;99.90;;;;;;5019074;28;19929;-73
2022/12/29 05:16:55;;;;;;;;;;;8.60;99.90;;;;;;5014453;28;19929;-73
2022/12/29 05:19:27;;;;;;;;;;;8.60;99.90;;;;;;5012535;28;20003;-73
2022/12/29 05:22:01;;;;;;;;;;;8.60;99.90;;;;;;5012166;28;20502;-73
2022/12/29 05:24:33;;;;;;;;;;;8.60;99.90;;;;;;5020401;28;19925;-72
2022/12/29 05:27:03;;;;;;;;;;;8.50;99.90;;;;;;5021167;28;20272;-72
2022/12/29 05:29:48;;;;;;;;;;;8.50;99.90;;;;;;5022055;28;20376;-72
2022/12/29 05:32:19;;;;;;;;;;;8.50;99.90;;;;;;5010683;28;19925;-73
2022/12/29 05:34:55;;;;;;;;;;;8.50;99.90;;;;;;5029644;28;19925;-73
2022/12/29 05:37:25;;;;;;;;;;;8.50;99.90;;;;;;5020733;28;20003;-72
2022/12/29 05:39:53;;;;;;;;;;;8.50;99.90;;;;;;4994033;28;19928;-72
2022/12/29 05:42:22;;;;;;;;;;;8.50;99.90;;;;;;5018248;28;20446;-73
2022/12/29 05:45:07;;;;;;;;;;;8.50;99.90;;;;;;5020000;28;19987;-72
2022/12/29 05:47:53;;;;;;;;;;;8.50;99.90;;;;;;5008852;28;19925;-72
2022/12/29 05:50:47;;;;;;;;;;;8.50;99.90;;;;;;5009003;28;19929;-72
2022/12/29 05:53:17;;;;;;;;;;;8.40;99.90;;;;;;5018096;28;19932;-72
2022/12/29 05:55:46;;;;;;;;;;;8.50;99.90;;;;;;4996955;28;20028;-72
2022/12/29 05:58:16;;;;;;;;;;;8.40;99.90;;;;;;4994458;28;20362;-72
2022/12/29 06:00:45;;;;;;;;;;;8.50;99.90;;;;;;5006707;28;19933;-73
2022/12/29 06:03:15;;;;;;;;;;;8.40;99.90;;;;;;5011101;28;20201;-72
2022/12/29 06:05:44;;;;;;;;;;;8.40;99.90;;;;;;5023317;28;20636;-73
2022/12/29 06:08:14;;;;;;;;;;;8.40;99.90;;;;;;5014307;28;19926;-72
2022/12/29 06:10:43;;;;;;;;;;;8.40;99.90;;;;;;5010671;28;20011;-72
2022/12/29 06:13:11;;;;;;;;;;;8.40;99.90;;;;;;5011307;28;20425;-73
2022/12/29 06:15:43;;;;;;;;;;;8.40;99.90;;;;;;4994134;28;20020;-73
2022/12/29 06:18:12;;;;;;;;;;;8.40;99.90;;;;;;5012436;28;19929;-73
2022/12/29 06:20:41;;;;;;;;;;;8.40;99.90;;;;;;5010947;28;19929;-73
2022/12/29 06:23:13;;;;;;;;;;;8.40;99.90;;;;;;5026770;28;20453;-73
2022/12/29 06:25:41;;;;;;;;;;;8.30;99.90;;;;;;5017592;28;19933;-72
2022/12/29 06:28:10;;;;;;;;;;;8.30;99.90;;;;;;5012730;28;19947;-73
2022/12/29 06:30:38;;;;;;;;;;;8.30;99.90;;;;;;4996272;28;19929;-72
2022/12/29 06:33:08;;;;;;;;;;;8.40;99.90;;;;;;5010947;28;20465;-72
2022/12/29 06:35:36;;;;;;;;;;;8.40;99.90;;;;;;5012479;28;19925;-73
2022/12/29 06:38:05;;;;;;;;;;;8.40;99.90;;;;;;5011149;28;19944;-73
2022/12/29 06:40:34;;;;;;;;;;;8.40;99.90;;;;;;4992390;28;19929;-73
2022/12/29 06:43:15;;;;;;;;;;;8.40;99.90;;;;;;4999747;28;19971;-73
2022/12/29 06:46:09;;;;;;;;;;;8.40;99.90;;;;;;5012070;28;20380;-72
2022/12/29 06:48:38;;;;;;;;;;;8.50;99.90;;;;;;5004504;28;20397;-73
2022/12/29 06:51:07;;;;;;;;;;;8.40;99.90;;;;;;4978612;28;20429;-73
2022/12/29 06:53:43;;;;;;;;;;;8.40;99.90;;;;;;5017010;28;20007;-73
2022/12/29 06:56:12;;;;;;;;;;;8.40;99.90;;;;;;4998853;28;20577;-73
2022/12/29 06:58:51;;;;;;;;;;;8.40;99.90;;;;;;4998786;28;19952;-72
2022/12/29 07:01:21;;;;;;;;;;;8.30;99.90;;;;;;4993428;28;19960;-72
2022/12/29 07:03:51;;;;;;;;;;;8.40;99.90;;;;;;5025437;28;20561;-73
2022/12/29 07:06:22;;;;;;;;;;;8.40;99.90;;;;;;5013542;28;19925;-73
2022/12/29 07:08:50;;;;;;;;;;;8.40;99.90;;;;;;5027314;28;19929;-72
2022/12/29 07:11:20;;;;;;;;;;;8.50;99.90;;;;;;5000716;28;19933;-72
2022/12/29 07:13:49;;;;;;;;;;;8.50;99.90;;;;;;5010534;28;19971;-73
2022/12/29 07:16:18;;;;;;;;;;;8.60;99.90;;;;;;5033724;28;19929;-73
2022/12/29 07:18:47;;;;;;;;;;;8.60;99.90;;;;;;4994373;28;19925;-73
2022/12/29 07:21:16;;;;;;;;;;;8.70;99.90;;;;;;5014476;28;20335;-72
2022/12/29 07:23:45;;;;;;;;;;;8.70;99.90;;;;;;5011098;28;20376;-73
2022/12/29 07:26:27;;;;;;;;;;;8.60;99.90;;;;;;5023264;28;19936;-72
2022/12/29 07:29:00;;;;;;;;;;;8.70;99.90;;;;;;5015696;28;20385;-73
2022/12/29 07:31:29;;;;;;;;;;;8.60;99.90;;;;;;4998204;28;19929;-72
2022/12/29 07:33:58;;;;;;;;;;;8.60;99.90;;;;;;5006929;28;19929;-72
2022/12/29 07:36:27;;;;;;;;;;;8.60;99.90;;;;;;5030814;28;19933;-73
2022/12/29 07:38:57;;;;;;;;;;;8.60;99.90;;;;;;5015911;28;20135;-72
2022/12/29 07:41:27;;;;;;;;;;;8.60;99.90;;;;;;5009228;28;19936;-72
2022/12/29 07:43:56;;;;;;;;;;;8.70;99.90;;;;;;5031046;28;19925;-72
2022/12/29 07:46:42;;;;;;;;;;;8.80;99.90;;;;;;5017710;28;19936;-73
2022/12/29 07:49:11;;;;;;;;;;;8.90;99.90;;;;;;5014296;28;19929;-73
2022/12/29 07:51:41;;;;;;;;;;;8.80;99.90;;;;;;5017446;28;20406;-73
2022/12/29 07:54:09;;;;;;;;;;;8.90;99.90;;;;;;5007052;28;19926;-73
2022/12/29 07:56:38;;;;;;;;;;;8.90;99.90;;;;;;5015289;28;19936;-72
2022/12/29 07:59:06;;;;;;;;;;;8.80;99.90;;;;;;5002975;28;19929;-72
2022/12/29 08:01:35;;;;;;;;;;;8.90;99.90;;;;;;5003680;28;19932;-73
2022/12/29 08:04:06;;;;;;;;;;;8.90;99.90;;;;;;5015304;28;20346;-73
2022/12/29 08:06:35;;;;;;;;;;;8.90;99.90;;;;;;4998698;28;20195;-73
2022/12/29 08:09:03;;;;;;;;;;;8.90;99.90;;;;;;5022759;28;19925;-73
2022/12/29 08:11:32;;;;;;;;;;;8.90;99.90;;;;;;5008305;28;20335;-73
2022/12/29 08:14:02;;;;;;;;;;;9.00;99.90;;;;;;5000326;28;19932;-72
2022/12/29 08:16:34;;;;;;;;;;;9.10;99.90;;;;;;5036770;28;19924;-72
2022/12/29 08:19:04;;;;;;;;;;;9.20;99.90;;;;;;5039926;28;19992;-74
2022/12/29 08:21:33;;;;;;;;;;;9.20;99.90;;;;;;5011591;28;19926;-72
2022/12/29 08:24:01;;;;;;;;;;;9.30;99.90;;;;;;5006804;28;20357;-72
2022/12/29 08:26:29;;;;;;;;;;;9.20;99.90;;;;;;5014593;28;19935;-73
2022/12/29 08:28:58;;;;;;;;;;;9.30;99.90;;;;;;5006738;28;19925;-73
2022/12/29 08:31:27;;;;;;;;;;;9.30;99.90;;;;;;5011829;28;19929;-73
2022/12/29 08:33:56;;;;;;;;;;;9.40;99.90;;;;;;5011382;28;20012;-73
2022/12/29 08:36:24;;;;;;;;;;;9.40;99.90;;;;;;5021803;28;19931;-73
2022/12/29 08:38:53;;;;;;;;;;;9.50;99.90;;;;;;5021606;28;19926;-72
2022/12/29 08:41:22;;;;;;;;;;;9.60;99.90;;;;;;5000968;28;19926;-73
2022/12/29 08:43:51;;;;;;;;;;;9.60;99.90;;;;;;4997439;28;20293;-73
2022/12/29 08:46:19;;;;;;;;;;;9.60;99.90;;;;;;4995751;28;19975;-73
2022/12/29 08:48:47;;;;;;;;;;;9.70;99.90;;;;;;5014000;28;20063;-73
2022/12/29 08:51:16;;;;;;;;;;;9.70;99.90;;;;;;4994277;28;19925;-73
2022/12/29 08:53:45;;;;;;;;;;;9.80;99.90;;;;;;5008341;28;20746;-73
2022/12/29 08:56:19;;;;;;;;;;;9.80;99.90;;;;;;5012635;28;20341;-73
2022/12/29 08:58:51;;;;;;;;;;;9.90;99.90;;;;;;4998667;28;19931;-73
2022/12/29 09:01:23;;;;;;;;;;;10.00;99.90;;;;;;5012458;28;19992;-73
2022/12/29 09:03:53;;;;;;;;;;;10.00;99.90;;;;;;5013099;28;19931;-72
2022/12/29 09:06:23;;;;;;;;;;;10.00;99.90;;;;;;5013971;28;19933;-73
2022/12/29 09:08:54;;;;;;;;;;;10.00;99.90;;;;;;4998023;28;19925;-73
2022/12/29 09:11:24;;;;;;;;;;;10.00;99.90;;;;;;5011557;28;20384;-72
2022/12/29 09:13:53;;;;;;;;;;;10.00;99.90;;;;;;5005263;28;20369;-73
2022/12/29 09:16:36;;;;;;;;;;;10.00;99.90;;;;;;5017896;28;19921;-73
2022/12/29 09:19:05;;;;;;;;;;;10.00;99.90;;;;;;5022844;28;19929;-73
2022/12/29 09:21:34;;;;;;;;;;;10.00;99.90;;;;;;4995852;28;20320;-72
2022/12/29 09:24:03;;;;;;;;;;;10.00;99.90;;;;;;5027587;28;19996;-72
2022/12/29 09:26:35;;;;;;;;;;;10.00;99.90;;;;;;5014419;28;19972;-73
2022/12/29 09:29:04;;;;;;;;;;;10.00;99.90;;;;;;5012506;28;19933;-73
2022/12/29 09:31:34;;;;;;;;;;;10.00;99.90;;;;;;4996372;28;19925;-72
2022/12/29 09:34:03;;;;;;;;;;;10.10;99.90;;;;;;5007614;28;19929;-73
2022/12/29 09:36:32;;;;;;;;;;;10.10;99.90;;;;;;4996870;28;20052;-72
2022/12/29 09:39:00;;;;;;;;;;;10.10;99.90;;;;;;4997380;28;19940;-73
2022/12/29 09:41:35;;;;;;;;;;;10.20;99.90;;;;;;4995305;28;19987;-72
2022/12/29 09:44:12;;;;;;;;;;;10.10;99.90;;;;;;4990663;28;19933;-73
2022/12/29 09:46:43;;;;;;;;;;;10.20;99.90;;;;;;5022042;28;20351;-72
2022/12/29 09:49:39;;;;;;;;;;;10.20;99.90;;;;;;5007846;28;20028;-73
2022/12/29 09:52:13;;;;;;;;;;;10.20;99.90;;;;;;5008831;28;19925;-73
2022/12/29 09:54:50;;;;;;;;;;;10.20;99.90;;;;;;5026030;28;19943;-73
2022/12/29 09:57:23;;;;;;;;;;;10.30;99.90;;;;;;5013041;28;19932;-72
2022/12/29 09:59:59;;;;;;;;;;;10.30;99.90;;;;;;5021612;28;20166;-72
2022/12/29 10:02:38;;;;;;;;;;;10.30;99.90;;;;;;5029677;28;20020;-72
2022/12/29 10:05:16;;;;;;;;;;;10.40;99.90;;;;;;5002806;28;19929;-73
2022/12/29 10:08:05;;;;;;;;;;;10.40;99.90;;;;;;5022742;28;20084;-73
2022/12/29 10:10:33;;;;;;;;;;;10.50;99.90;;;;;;5009579;28;19934;-73
2022/12/29 10:13:28;;;;;;;;;;;10.60;99.90;;;;;;5011596;28;19925;-72
2022/12/29 10:15:58;;;;;;;;;;;10.60;99.90;;;;;;5011636;28;19929;-72
2022/12/29 10:18:38;;;;;;;;;;;10.60;99.90;;;;;;5011307;28;19926;-73
2022/12/29 10:21:09;;;;;;;;;;;10.70;99.90;;;;;;5006556;28;19991;-73
2022/12/29 10:23:44;;;;;;;;;;;10.70;99.90;;;;;;5007628;28;19956;-73
2022/12/29 10:26:15;;;;;;;;;;;10.70;99.90;;;;;;5021400;28;19929;-73
2022/12/29 10:28:44;;;;;;;;;;;10.70;99.90;;;;;;5005171;28;19938;-73
2022/12/29 10:31:35;;;;;;;;;;;10.80;99.90;;;;;;5029490;28;20020;-74
2022/12/29 10:34:08;;;;;;;;;;;10.90;99.90;;;;;;5008870;28;19929;-71
2022/12/29 10:36:48;;;;;;;;;;;10.80;99.90;;;;;;5021485;28;19925;-73
2022/12/29 10:39:26;;;;;;;;;;;10.80;99.90;;;;;;5025115;28;19925;-74
2022/12/29 10:42:01;;;;;;;;;;;10.70;99.90;;;;;;4998548;28;20389;-72
2022/12/29 10:44:34;;;;;;;;;;;10.70;99.90;;;;;;5010770;28;19925;-72
2022/12/29 10:47:07;;;;;;;;;;;10.80;99.90;;;;;;5008350;28;19935;-72
2022/12/29 10:49:42;;;;;;;;;;;10.80;99.90;;;;;;4987766;28;19925;-71
2022/12/29 10:52:20;;;;;;;;;;;10.80;99.90;;;;;;5012991;28;19932;-73
2022/12/29 10:55:17;;;;;;;;;;;10.80;99.90;;;;;;5026078;28;19932;-72
2022/12/29 10:57:46;;;;;;;;;;;10.80;99.90;;;;;;4997429;28;19925;-72
2022/12/29 11:00:20;;;;;;;;;;;10.90;99.90;;;;;;5017960;28;20020;-72
2022/12/29 11:03:03;;;;;;;;;;;10.90;99.90;;;;;;5012532;28;20411;-73
2022/12/29 11:05:32;;;;;;;;;;;11.00;99.90;;;;;;5021353;28;19932;-72
2022/12/29 11:08:03;;;;;;;;;;;11.00;99.90;;;;;;5015069;28;19925;-72
2022/12/29 11:10:40;;;;;;;;;;;11.10;99.90;;;;;;5000229;28;19983;-72
2022/12/29 11:13:20;;;;;;;;;;;11.00;99.90;;;;;;5018614;28;19926;-72
2022/12/29 11:15:50;;;;;;;;;;;11.10;99.90;;;;;;5012637;28;19925;-72
2022/12/29 11:18:25;;;;;;;;;;;11.20;99.90;;;;;;5012486;28;19983;-73
2022/12/29 11:20:58;;;;;;;;;;;11.30;99.90;;;;;;5002758;28;19963;-71
2022/12/29 11:23:27;;;;;;;;;;;11.40;99.90;;;;;;5009858;28;19926;-75
2022/12/29 11:26:08;;;;;;;;;;;11.40;99.90;;;;;;5049363;28;19973;-75
2022/12/29 11:28:37;;;;;;;;;;;11.50;99.90;;;;;;5027455;28;19925;-73
2022/12/29 11:31:08;;;;;;;;;;;11.60;99.90;;;;;;5011440;28;19925;-73
2022/12/29 11:33:39;;;;;;;;;;;11.70;99.90;;;;;;5011516;28;19925;-72
2022/12/29 11:36:16;;;;;;;;;;;11.70;99.90;;;;;;5012643;28;19936;-71
2022/12/29 11:38:50;;;;;;;;;;;11.90;99.90;;;;;;5011970;28;19968;-72
2022/12/29 11:41:21;;;;;;;;;;;11.90;99.90;;;;;;5004164;28;19937;-72
2022/12/29 11:43:51;;;;;;;;;;;11.90;99.90;;;;;;5002179;28;19926;-72
2022/12/29 11:46:26;;;;;;;;;;;11.90;99.90;;;;;;5031447;28;19925;-73
2022/12/29 11:48:58;;;;;;;;;;;11.90;99.90;;;;;;5005027;28;19925;-72
2022/12/29 11:51:39;;;;;;;;;;;11.90;99.90;;;;;;5018447;28;19929;-72
2022/12/29 11:54:10;;;;;;;;;;;11.90;99.90;;;;;;5026557;28;19929;-71
2022/12/29 11:56:41;;;;;;;;;;;11.90;99.90;;;;;;4997315;28;20306;-72
2022/12/29 11:59:34;;;;;;;;;;;11.90;99.90;;;;;;5014402;28;19964;-75
2022/12/29 12:02:21;;;;;;;;;;;11.80;99.90;;;;;;4985875;28;19968;-74
2022/12/29 12:04:52;;;;;;;;;;;11.90;99.90;;;;;;5023746;28;20400;-71
2022/12/29 12:07:26;;;;;;;;;;;11.90;99.90;;;;;;5017093;28;19932;-72
2022/12/29 12:09:58;;;;;;;;;;;11.80;99.90;;;;;;5011309;28;19971;-72
2022/12/29 12:12:27;;;;;;;;;;;11.90;99.90;;;;;;5005066;28;19929;-72
2022/12/29 12:15:01;;;;;;;;;;;11.90;99.90;;;;;;5014934;28;19925;-72
2022/12/29 12:17:55;;;;;;;;;;;11.90;99.90;;;;;;5011900;28;19925;-72
2022/12/29 12:20:43;;;;;;;;;;;11.80;99.90;;;;;;5013121;28;20006;-72
2022/12/29 12:23:30;;;;;;;;;;;11.80;99.90;;;;;;5018400;28;19932;-74
2022/12/29 12:26:13;;;;;;;;;;;11.80;99.90;;;;;;5022769;28;19929;-73
2022/12/29 12:29:05;;;;;;;;;;;11.80;99.90;;;;;;5014342;28;19925;-73
2022/12/29 12:31:43;;;;;;;;;;;11.80;99.90;;;;;;5026239;28;19988;-72
2022/12/29 12:34:16;;;;;;;;;;;11.80;99.90;;;;;;5008394;28;19933;-71
2022/12/29 12:36:55;;;;;;;;;;;11.80;99.90;;;;;;5012991;28;20040;-72
2022/12/29 12:39:33;;;;;;;;;;;11.80;99.90;;;;;;4994817;28;19931;-72
2022/12/29 12:42:20;;;;;;;;;;;11.80;99.90;;;;;;5029265;28;19931;-72
2022/12/29 12:44:58;;;;;;;;;;;11.90;99.90;;;;;;5012969;28;20035;-73
2022/12/29 12:47:27;;;;;;;;;;;11.90;99.90;;;;;;4994475;28;19925;-72
2022/12/29 12:49:59;;;;;;;;;;;11.90;99.90;;;;;;5002412;28;20004;-72
2022/12/29 12:52:37;;;;;;;;;;;11.90;99.90;;;;;;5019968;28;20013;-72
2022/12/29 12:55:18;;;;;;;;;;;11.90;99.90;;;;;;5024337;28;19964;-71
2022/12/29 12:57:54;;;;;;;;;;;11.90;99.90;;;;;;5014097;28;19925;-72
2022/12/29 13:00:23;;;;;;;;;;;11.90;99.90;;;;;;5018767;28;19925;-73
2022/12/29 13:02:54;;;;;;;;;;;11.90;99.90;;;;;;5012279;28;19925;-72
2022/12/29 13:05:33;;;;;;;;;;;11.90;99.90;;;;;;5024673;28;19965;-71
2022/12/29 13:08:01;;;;;;;;;;;11.90;99.90;;;;;;5010756;28;19925;-72
2022/12/29 13:10:39;;;;;;;;;;;11.90;99.90;;;;;;5009370;28;19929;-71
2022/12/29 13:13:21;;;;;;;;;;;11.80;99.90;;;;;;5006571;28;19933;-71
2022/12/29 13:15:50;;;;;;;;;;;11.80;99.90;;;;;;5021293;28;19933;-72
2022/12/29 13:18:18;;;;;;;;;;;11.80;99.90;;;;;;5022821;28;19926;-72
2022/12/29 13:20:50;;;;;;;;;;;11.80;99.90;;;;;;5018041;28;20021;-72
2022/12/29 13:23:57;;;;;;;;;;;11.70;99.90;;;;;;5011546;28;19925;-72
2022/12/29 13:26:32;;;;;;;;;;;11.80;99.90;;;;;;4972111;28;20086;-72
2022/12/29 13:29:29;;;;;;;;;;;11.80;99.90;;;;;;4965496;28;20361;-71
2022/12/29 13:32:28;;;;;;;;;;;11.70;99.90;;;;;;5019388;28;19929;-72
2022/12/29 13:35:04;;;;;;;;;;;11.70;99.90;;;;;;5028832;28;20380;-73
2022/12/29 13:37:36;;;;;;;;;;;11.70;99.90;;;;;;5011247;28;19925;-71
2022/12/29 13:40:12;;;;;;;;;;;11.70;99.90;;;;;;5012065;28;20633;-72
2022/12/29 13:42:41;;;;;;;;;;;11.70;99.90;;;;;;5013712;28;19926;-71
2022/12/29 13:45:19;;;;;;;;;;;11.60;99.90;;;;;;5024036;28;20295;-73
2022/12/29 13:47:58;;;;;;;;;;;11.60;99.90;;;;;;5027553;28;20016;-72
2022/12/29 13:50:54;;;;;;;;;;;11.60;99.90;;;;;;5014795;28;19919;-71
2022/12/29 13:53:27;;;;;;;;;;;11.60;99.90;;;;;;5022712;28;19925;-72
2022/12/29 13:56:13;;;;;;;;;;;11.50;99.90;;;;;;5018815;28;19929;-72
2022/12/29 13:58:44;;;;;;;;;;;11.50;99.90;;;;;;5010876;28;19925;-71
2022/12/29 14:01:24;;;;;;;;;;;11.50;99.90;;;;;;5017902;28;19929;-74
2022/12/29 14:03:57;;;;;;;;;;;11.50;99.90;;;;;;5013315;28;19931;-71
2022/12/29 14:06:30;;;;;;;;;;;11.50;99.90;;;;;;5013312;28;19929;-71
2022/12/29 14:09:01;;;;;;;;;;;11.40;99.90;;;;;;5000702;28;19929;-73
2022/12/29 14:11:31;;;;;;;;;;;11.50;99.90;;;;;;5002415;28;19932;-73
2022/12/29 14:14:09;;;;;;;;;;;11.40;99.90;;;;;;5002134;28;19930;-73
2022/12/29 14:16:39;;;;;;;;;;;11.40;99.90;;;;;;5009608;28;19925;-72
2022/12/29 14:19:19;;;;;;;;;;;11.30;99.90;;;;;;5005916;28;19937;-72
2022/12/29 14:21:55;;;;;;;;;;;11.30;99.90;;;;;;4991144;28;19929;-72
2022/12/29 14:24:37;;;;;;;;;;;11.40;99.90;;;;;;5021555;28;20198;-72
2022/12/29 14:27:09;;;;;;;;;;;11.30;99.90;;;;;;5012851;28;19925;-72
2022/12/29 14:29:40;;;;;;;;;;;11.30;99.90;;;;;;5011534;28;19936;-72
2022/12/29 14:32:25;;;;;;;;;;;11.30;99.90;;;;;;5037987;28;19933;-74
2022/12/29 14:34:54;;;;;;;;;;;11.20;99.90;;;;;;5034439;28;19920;-76
2022/12/29 14:37:46;;;;;;;;;;;11.20;99.90;;;;;;5011933;28;19913;-72
2022/12/29 14:40:22;;;;;;;;;;;11.20;99.90;;;;;;4994249;28;19929;-72
2022/12/29 14:42:52;;;;;;;;;;;11.10;99.90;;;;;;4994241;28;19929;-72
2022/12/29 14:45:20;;;;;;;;;;;11.10;99.90;;;;;;5011884;28;20010;-72
2022/12/29 14:47:50;;;;;;;;;;;11.00;99.90;;;;;;5005337;28;19929;-72
2022/12/29 14:50:24;;;;;;;;;;;10.90;99.90;;;;;;5015179;28;19925;-72
2022/12/29 14:52:53;;;;;;;;;;;10.90;99.90;;;;;;5025653;28;19929;-72
2022/12/29 14:55:41;;;;;;;;;;;10.90;99.90;;;;;;5027576;28;20027;-72
2022/12/29 14:58:14;;;;;;;;;;;10.90;99.90;;;;;;5029389;28;19931;-72
2022/12/29 15:00:42;;;;;;;;;;;10.80;99.90;;;;;;5029011;28;20162;-71
2022/12/29 15:03:17;;;;;;;;;;;10.70;99.90;;;;;;5012626;28;19925;-72
2022/12/29 15:05:46;;;;;;;;;;;10.70;99.90;;;;;;4992920;28;19929;-72
2022/12/29 15:08:17;;;;;;;;;;;10.70;99.90;;;;;;5022981;28;20376;-71
2022/12/29 15:10:57;;;;;;;;;;;10.60;99.90;;;;;;5021123;28;19933;-73
2022/12/29 15:13:38;;;;;;;;;;;10.60;99.90;;;;;;5003890;28;19925;-72
2022/12/29 15:16:28;;;;;;;;;;;10.50;99.90;;;;;;5012133;28;19933;-73
2022/12/29 15:19:04;;;;;;;;;;;10.60;99.90;;;;;;5018083;28;19937;-72
2022/12/29 15:21:34;;;;;;;;;;;10.50;99.90;;;;;;5002557;28;19932;-72
2022/12/29 15:24:04;;;;;;;;;;;10.40;99.90;;;;;;5016125;28;20509;-71
2022/12/29 15:26:41;;;;;;;;;;;10.40;99.90;;;;;;5024268;28;19929;-73
2022/12/29 15:29:37;;;;;;;;;;;10.30;99.90;;;;;;5016323;28;19925;-74
2022/12/29 15:32:15;;;;;;;;;;;10.30;99.90;;;;;;5027480;28;19959;-74
2022/12/29 15:34:45;;;;;;;;;;;10.30;99.90;;;;;;5023248;28;19932;-72
2022/12/29 15:37:18;;;;;;;;;;;10.30;99.90;;;;;;5024874;28;20384;-72
2022/12/29 15:39:48;;;;;;;;;;;10.30;99.90;;;;;;5018343;28;19972;-72
2022/12/29 15:42:36;;;;;;;;;;;10.30;99.90;;;;;;5014973;28;19931;-73